^^
Weerstation Genderen Historische Gegevens
 
Daily Summary for March 04, 2021 Units:  Metric    English   Both
Daily Weekly Monthly Yearly
  Current: High: Low: Average:
Temperature: 2.9 °C 3.8 °C 2.9 °C 3.5 °C
Dew Point: 2.5 °C 3.3 °C 2.4 °C 3 °C
Humidity: 97% 97% 96% 97%
Wind Speed: 6.1km/h 9.6km/h 0km/h 3.1km/h
Wind Gust: 5km/h 7.6km/h - -
WindNE - - NNE
Pressure: 1021.0 hPa 1024.3 hPa 1021.0 hPa -
Precipitation: 0.0 mm      
 
 
Tabular Data for March 04, 2021
Time Temperature Dew Point Pressure Wind Wind Speed Wind Gust Humidity Rainfall Rate (Hourly) solar
00:04 3.7 °C 3.2 °C 1024.3 hPa NNE 5.4 km/h 3.5 km/h 96% 0.0 mm W/m2
00:09 3.7 °C 3.2 °C 1024.3 hPa NNE 3.9 km/h 1.4 km/h 96% 0.0 mm W/m2
00:14 3.7 °C 3.2 °C 1024.3 hPa NNE 0.4 km/h 0.3 km/h 96% 0.0 mm W/m2
00:19 3.7 °C 3.2 °C 1024.3 hPa NNE 1.7 km/h 0.6 km/h 96% 0.0 mm W/m2
00:24 3.8 °C 3.2 °C 1024.3 hPa NNE 4 km/h 2.7 km/h 96% 0.0 mm W/m2
00:29 3.8 °C 3.2 °C 1024.2 hPa NNE 1.7 km/h 2.6 km/h 96% 0.0 mm W/m2
00:34 3.8 °C 3.2 °C 1024.1 hPa NNE 3.3 km/h 1.9 km/h 96% 0.0 mm W/m2
00:39 3.8 °C 3.2 °C 1024.0 hPa NNE 2.1 km/h 2.6 km/h 96% 0.0 mm W/m2
00:44 3.8 °C 3.2 °C 1024.0 hPa Calm     96% 0.0 mm W/m2
00:49 3.8 °C 3.2 °C 1024.0 hPa Calm     96% 0.0 mm W/m2
00:54 3.8 °C 3.2 °C 1024.0 hPa NNE 1 km/h 0.8 km/h 96% 0.0 mm W/m2
00:59 3.8 °C 3.2 °C 1023.9 hPa NNE 2.5 km/h 0.6 km/h 96% 0.0 mm W/m2
01:04 3.8 °C 3.2 °C 1023.9 hPa NNE 0.9 km/h 0.3 km/h 96% 0.0 mm W/m2
01:09 3.8 °C 3.2 °C 1023.9 hPa NNE 2.8 km/h 1.1 km/h 96% 0.0 mm W/m2
01:14 3.8 °C 3.2 °C 1023.8 hPa NNE 1.3 km/h 0.6 km/h 96% 0.0 mm W/m2
01:19 3.8 °C 3.2 °C 1023.7 hPa NNE 2 km/h 3.2 km/h 96% 0.0 mm W/m2
01:24 3.7 °C 3.2 °C 1023.7 hPa NNE 4.9 km/h 3.4 km/h 96% 0.0 mm W/m2
01:29 3.7 °C 3.1 °C 1023.6 hPa Calm     96% 0.0 mm W/m2
01:34 3.7 °C 3.1 °C 1023.6 hPa Calm     96% 0.0 mm W/m2
01:39 3.6 °C 3.1 °C 1023.6 hPa Calm     96% 0.0 mm W/m2
01:44 3.6 °C 3.1 °C 1023.5 hPa NNE 1.5 km/h 0.6 km/h 96% 0.0 mm W/m2
01:49 3.6 °C 3.1 °C 1023.4 hPa NNE 0.9 km/h 1 km/h 96% 0.0 mm W/m2
01:54 3.6 °C 3.1 °C 1023.4 hPa NNE 4.5 km/h 2.1 km/h 96% 0.0 mm W/m2
01:59 3.6 °C 3.1 °C 1023.2 hPa NNE 5.6 km/h 3.9 km/h 96% 0.0 mm W/m2
02:04 3.6 °C 3.1 °C 1023.1 hPa NNE 6.7 km/h 4.3 km/h 96% 0.0 mm W/m2
02:09 3.6 °C 3.1 °C 1023.3 hPa NNE 5 km/h 5 km/h 96% 0.0 mm W/m2
02:14 3.6 °C 3.1 °C 1023.4 hPa NNE 0.4 km/h   96% 0.0 mm W/m2
02:19 3.6 °C 3.1 °C 1023.4 hPa NNE 0.7 km/h 0.2 km/h 96% 0.0 mm W/m2
02:24 3.6 °C 3.1 °C 1023.5 hPa NNE 0.9 km/h 0.2 km/h 96% 0.0 mm W/m2
02:29 3.6 °C 3.1 °C 1023.4 hPa NNE 2.7 km/h 1.3 km/h 96% 0.0 mm W/m2
02:34 3.6 °C 3.1 °C 1023.5 hPa NNE 3.5 km/h 1.9 km/h 96% 0.0 mm W/m2
02:39 3.6 °C 3.1 °C 1023.3 hPa NNE 2.5 km/h 1.6 km/h 96% 0.0 mm W/m2
02:44 3.6 °C 3.1 °C 1023.3 hPa NNE 3.1 km/h 2.3 km/h 96% 0.0 mm W/m2
02:49 3.6 °C 3.1 °C 1023.1 hPa NNE 2.3 km/h 1.3 km/h 96% 0.0 mm W/m2
02:54 3.6 °C 3.1 °C 1023.1 hPa NNE 2.1 km/h 1.3 km/h 96% 0.0 mm W/m2
02:59 3.6 °C 3.1 °C 1023.0 hPa NNE 2.6 km/h 3.2 km/h 96% 0.0 mm W/m2
03:04 3.6 °C 3.1 °C 1022.9 hPa NNE 1.9 km/h 2.7 km/h 96% 0.0 mm W/m2
03:09 3.6 °C 3.1 °C 1023.0 hPa NNE 4.3 km/h 2.3 km/h 96.6% 0.0 mm W/m2
03:14 3.6 °C 3.2 °C 1022.9 hPa Calm     97% 0.0 mm W/m2
03:19 3.6 °C 3.2 °C 1022.8 hPa NNE 3.9 km/h 4.5 km/h 97% 0.0 mm W/m2
03:24 3.6 °C 3.2 °C 1022.5 hPa NNE 5.2 km/h 3.1 km/h 97% 0.0 mm W/m2
03:29 3.6 °C 3.1 °C 1022.5 hPa NNE 0.7 km/h 2.9 km/h 97% 0.0 mm W/m2
03:34 3.6 °C 3.1 °C 1022.4 hPa NNE 4.8 km/h 3.1 km/h 97% 0.0 mm W/m2
03:39 3.6 °C 3.2 °C 1022.4 hPa NNE 4.5 km/h 2.6 km/h 97% 0.0 mm W/m2
03:44 3.6 °C 3.2 °C 1022.4 hPa NNE 0.8 km/h 0.2 km/h 97% 0.0 mm W/m2
03:49 3.6 °C 3.2 °C 1022.4 hPa NNE 2.7 km/h 1.1 km/h 97% 0.0 mm W/m2
03:54 3.7 °C 3.2 °C 1022.4 hPa NNE 3.2 km/h 1.9 km/h 97% 0.0 mm W/m2
03:59 3.7 °C 3.3 °C 1022.2 hPa NNE 2.4 km/h 2.9 km/h 97% 0.0 mm W/m2
04:04 3.7 °C 3.3 °C 1022.2 hPa Calm     97% 0.0 mm W/m2
04:09 3.7 °C 3.3 °C 1022.1 hPa Calm     97% 0.0 mm W/m2
04:14 3.7 °C 3.3 °C 1022.0 hPa Calm     97% 0.0 mm W/m2
04:19 3.7 °C 3.3 °C 1021.9 hPa Calm     97% 0.0 mm W/m2
04:24 3.7 °C 3.3 °C 1022.0 hPa Calm     97% 0.0 mm W/m2
04:29 3.8 °C 3.3 °C 1022.0 hPa NNE 0.2 km/h   97% 0.0 mm W/m2
04:34 3.7 °C 3.3 °C 1022.0 hPa NNE 1.1 km/h 0.3 km/h 97% 0.0 mm W/m2
04:39 3.8 °C 3.3 °C 1021.9 hPa Calm     97% 0.0 mm W/m2
04:44 3.7 °C 3.3 °C 1021.9 hPa Calm     97% 0.0 mm W/m2
04:49 3.7 °C 3.3 °C 1021.9 hPa NNE 1 km/h 0.5 km/h 97% 0.0 mm W/m2
04:54 3.7 °C 3.3 °C 1021.9 hPa NNE 0.5 km/h 0.3 km/h 97% 0.0 mm W/m2
04:59 3.7 °C 3.2 °C 1021.9 hPa Calm     97% 0.0 mm W/m2
05:04 3.6 °C 3.2 °C 1021.9 hPa Calm     97% 0.0 mm W/m2
05:09 3.6 °C 3.2 °C 1021.9 hPa NNE 3.9 km/h 1.9 km/h 97% 0.0 mm W/m2
05:14 3.6 °C 3.2 °C 1021.8 hPa NNE 1.9 km/h 2.6 km/h 97% 0.0 mm W/m2
05:19 3.6 °C 3.2 °C 1021.8 hPa NNE 1.9 km/h 1.9 km/h 97% 0.0 mm W/m2
05:24 3.6 °C 3.2 °C 1021.8 hPa NNE 4 km/h 3.4 km/h 97% 0.0 mm W/m2
05:29 3.6 °C 3.2 °C 1021.8 hPa NNE 1.1 km/h 1.8 km/h 97% 0.0 mm W/m2
05:34 3.6 °C 3.1 °C 1021.8 hPa NNE 4.1 km/h 1.9 km/h 97% 0.0 mm W/m2
05:39 3.5 °C 3.1 °C 1021.6 hPa NNE 2.7 km/h 1.9 km/h 97% 0.0 mm W/m2
05:44 3.5 °C 3.1 °C 1021.6 hPa NNE 5 km/h 3.2 km/h 97% 0.0 mm W/m2
05:49 3.5 °C 3.1 °C 1021.4 hPa NNE 5.1 km/h 3.1 km/h 97% 0.0 mm W/m2
05:54 3.5 °C 3 °C 1021.5 hPa NNE 4.5 km/h 4.2 km/h 97% 0.0 mm W/m2
05:59 3.4 °C 2.9 °C 1021.4 hPa NNE 4.8 km/h 3.9 km/h 97% 0.0 mm W/m2
06:04 3.3 °C 2.9 °C 1021.2 hPa NNE 2.7 km/h 2.1 km/h 97% 0.0 mm W/m2
06:09 3.3 °C 2.9 °C 1021.3 hPa NNE 5.2 km/h 3.9 km/h 97% 0.0 mm W/m2
06:14 3.3 °C 2.8 °C 1021.3 hPa NNE 2.7 km/h 0.6 km/h 97% 0.0 mm W/m2
06:19 3.3 °C 2.8 °C 1021.4 hPa NNE 2.1 km/h 3.2 km/h 97% 0.0 mm W/m2
06:24 3.3 °C 2.8 °C 1021.4 hPa NNE 3.1 km/h 3.5 km/h 97% 0.0 mm W/m2
06:29 3.3 °C 2.8 °C 1021.3 hPa NNE 5 km/h 3.5 km/h 97% 0.0 mm W/m2
06:34 3.2 °C 2.8 °C 1021.2 hPa NNE 2.3 km/h 0.8 km/h 97% 0.0 mm W/m2
06:39 3.2 °C 2.8 °C 1021.2 hPa NNE 3.5 km/h 3.2 km/h 97% 0.0 mm W/m2
06:44 3.2 °C 2.8 °C 1021.2 hPa NNE 3.9 km/h 3.4 km/h 97% 0.0 mm W/m2
06:49 3.2 °C 2.7 °C 1021.3 hPa NNE 2 km/h 3.1 km/h 97% 0.0 mm W/m2
06:54 3.2 °C 2.7 °C 1021.1 hPa NNE 4.3 km/h 3.5 km/h 97% 0.0 mm W/m2
06:59 3.2 °C 2.7 °C 1021.1 hPa NNE 5.7 km/h 4.7 km/h 97% 0.0 mm W/m2
07:04 3.2 °C 2.7 °C 1021.1 hPa NNE 4 km/h 2.9 km/h 97% 0.0 mm W/m2
07:09 3.2 °C 2.7 °C 1021.1 hPa NNE 4.8 km/h 2.7 km/h 97% 0.0 mm W/m2
07:14 3.2 °C 2.8 °C 1021.1 hPa NNE 5.2 km/h 1.9 km/h 97% 0.0 mm W/m2
07:19 3.2 °C 2.7 °C 1021.3 hPa NNE 1.6 km/h 1.6 km/h 97% 0.0 mm W/m2
07:24 3.2 °C 2.8 °C 1021.3 hPa Calm     97% 0.0 mm W/m2
07:29 3.2 °C 2.8 °C 1021.2 hPa NNE 3.1 km/h 1.4 km/h 97% 0.0 mm W/m2
07:34 3.2 °C 2.8 °C 1021.2 hPa NNE 2.1 km/h 1.3 km/h 97% 0.0 mm W/m2
07:39 3.2 °C 2.8 °C 1021.2 hPa NNE 2.9 km/h 2.7 km/h 97% 0.0 mm W/m2
07:44 3.2 °C 2.8 °C 1021.2 hPa NNE 1.9 km/h 1.6 km/h 97% 0.0 mm W/m2
07:49 3.2 °C 2.8 °C 1021.3 hPa NNE 4.3 km/h 1.9 km/h 97% 0.0 mm W/m2
07:54 3.2 °C 2.8 °C 1021.2 hPa NNE 4.5 km/h 2.9 km/h 97% 0.0 mm W/m2
07:59 3.2 °C 2.8 °C 1021.2 hPa NNE 0.8 km/h 0.3 km/h 97% 0.0 mm W/m2
08:04 3.2 °C 2.8 °C 1021.3 hPa Calm     97% 0.0 mm W/m2
08:09 3.2 °C 2.8 °C 1021.3 hPa NNE 1 km/h 0.3 km/h 97% 0.0 mm W/m2
08:14 3.2 °C 2.8 °C 1021.3 hPa NNE 3.6 km/h 2.9 km/h 97% 0.0 mm W/m2
08:19 3.2 °C 2.8 °C 1021.2 hPa NNE 6 km/h 6.6 km/h 97% 0.0 mm W/m2
08:24 3.2 °C 2.8 °C 1021.2 hPa NNE 7.5 km/h 6.6 km/h 97% 0.0 mm W/m2
08:29 3.2 °C 2.8 °C 1021.2 hPa NNE 5.8 km/h 4.2 km/h 97% 0.0 mm W/m2
08:34 3.2 °C 2.8 °C 1021.2 hPa NE 9.4 km/h 6.1 km/h 97% 0.0 mm W/m2
08:39 3.2 °C 2.7 °C 1021.3 hPa NE 5.4 km/h 3.9 km/h 97% 0.0 mm W/m2
08:44 3.2 °C 2.7 °C 1021.3 hPa NE 8 km/h 6.4 km/h 97% 0.0 mm W/m2
08:49 3.1 °C 2.7 °C 1021.3 hPa NE 7.2 km/h 5.5 km/h 97% 0.0 mm W/m2
08:54 3.1 °C 2.6 °C 1021.3 hPa NNE 9.1 km/h 7.6 km/h 97% 0.0 mm W/m2
08:59 3 °C 2.6 °C 1021.2 hPa NE 8.1 km/h 7.4 km/h 97% 0.0 mm W/m2
09:04 3 °C 2.6 °C 1021.2 hPa NNE 6.1 km/h 5.8 km/h 97% 0.0 mm W/m2
09:09 3 °C 2.5 °C 1021.2 hPa NNE 9.6 km/h 7.6 km/h 97% 0.0 mm W/m2
09:14 2.9 °C 2.4 °C 1021.2 hPa NE 6.7 km/h 5.1 km/h 97% 0.0 mm W/m2
09:19 2.9 °C 2.4 °C 1021.2 hPa NE 5.9 km/h 4.3 km/h 97% 0.0 mm W/m2
09:24 2.9 °C 2.4 °C 1021.2 hPa NE 5.9 km/h 4.2 km/h 97% 0.0 mm W/m2
09:29 2.9 °C 2.4 °C 1021.1 hPa NE 5.2 km/h 4.2 km/h 97% 0.0 mm W/m2
09:34 2.9 °C 2.4 °C 1021.1 hPa NE 3.1 km/h 3.4 km/h 97% 0.0 mm W/m2
09:39 2.9 °C 2.5 °C 1021.1 hPa NE 6.3 km/h 6.1 km/h 97% 0.0 mm W/m2
09:44 2.9 °C 2.4 °C 1021.1 hPa NE 5.5 km/h 4.3 km/h 97% 0.0 mm W/m2
09:49 2.9 °C 2.5 °C 1021.0 hPa NE 6.1 km/h 5 km/h 97% 0.0 mm W/m2
Genderen, Netherlands, EU
Compliments of Weather Underground - 2 mb